Time;durP1;ratioP1;P1;durP2;ratioP2;P2;SDS_P1;SDS_P2;PMS_P1;PMS_P2;Temp;Humidity;BMP_temperature;BMP_pressure;BME280_temperature;BME280_humidity;BME280_pressure;Samples;Min_cycle;Max_cycle;Signal;HPM_P1;HPM_P2
2023/04/25 00:01:45;;;;;;;17.58;7.40;;;16.80;99.90;;;;;;7423795;19;19930;-81
2023/04/25 00:04:11;;;;;;;18.27;8.43;;;16.80;99.90;;;;;;7425523;19;19922;-81
2023/04/25 00:06:37;;;;;;;18.70;7.65;;;16.90;99.90;;;;;;7425017;19;19922;-81
2023/04/25 00:09:07;;;;;;;18.90;8.88;;;16.90;99.90;;;;;;7422555;19;20825;-82
2023/04/25 00:11:33;;;;;;;15.48;7.35;;;16.90;99.90;;;;;;7426323;19;19910;-81
2023/04/25 00:14:01;;;;;;;20.60;8.20;;;16.80;99.90;;;;;;7404221;19;19930;-82
2023/04/25 00:16:29;;;;;;;17.17;7.18;;;16.70;99.90;;;;;;7425762;19;19918;-82
2023/04/25 00:18:55;;;;;;;14.13;6.95;;;16.70;99.90;;;;;;7428144;19;19942;-82
2023/04/25 00:21:21;;;;;;;16.15;7.75;;;16.70;99.90;;;;;;7428894;19;19918;-82
2023/04/25 00:23:47;;;;;;;16.98;7.15;;;16.60;99.90;;;;;;7425550;19;19914;-82
2023/04/25 00:26:13;;;;;;;13.63;6.30;;;16.60;99.90;;;;;;7427238;19;19922;-83
2023/04/25 00:28:40;;;;;;;16.33;6.85;;;16.60;99.90;;;;;;7425081;19;19915;-82
2023/04/25 00:31:06;;;;;;;15.30;6.53;;;16.50;99.90;;;;;;7426577;19;19922;-80
2023/04/25 00:33:31;;;;;;;17.25;6.88;;;16.40;99.90;;;;;;7425155;19;19928;-81
2023/04/25 00:35:57;;;;;;;14.68;7.05;;;16.40;99.90;;;;;;7425294;19;19906;-81
2023/04/25 00:38:26;;;;;;;13.52;7.05;;;16.40;99.90;;;;;;7423870;19;19910;-81
2023/04/25 00:40:52;;;;;;;15.32;6.35;;;16.30;99.90;;;;;;7424474;19;19917;-82
2023/04/25 00:43:18;;;;;;;14.00;6.85;;;16.20;99.90;;;;;;7372847;19;20095;-82
2023/04/25 00:45:47;;;;;;;17.60;7.35;;;16.20;99.90;;;;;;7427441;19;19930;-82
2023/04/25 00:48:14;;;;;;;16.13;6.55;;;16.10;99.90;;;;;;7425797;19;19925;-82
2023/04/25 00:50:51;;;;;;;14.73;7.55;;;16.10;99.90;;;;;;7426363;19;19918;-81
2023/04/25 00:53:18;;;;;;;18.15;7.90;;;16.00;99.90;;;;;;7426093;19;19918;-81
2023/04/25 00:55:43;;;;;;;;;;;16.00;99.90;;;;;;7425631;19;19922;-81
2023/04/25 00:58:09;;;;;;;16.55;7.05;;;15.90;99.90;;;;;;7424367;19;19918;-82
2023/04/25 01:00:36;;;;;;;14.05;7.15;;;15.90;99.90;;;;;;7426146;19;20381;-81
2023/04/25 01:03:03;;;;;;;12.93;6.80;;;15.90;99.90;;;;;;7402318;19;19938;-82
2023/04/25 01:05:29;;;;;;;17.67;7.35;;;15.90;99.90;;;;;;7425172;19;19936;-82
2023/04/25 01:07:56;;;;;;;12.75;6.63;;;15.80;99.90;;;;;;7427293;19;19915;-82
2023/04/25 01:10:22;;;;;;;14.38;7.30;;;15.80;99.90;;;;;;7425605;19;19957;-82
2023/04/25 01:12:47;;;;;;;17.02;7.10;;;15.80;99.90;;;;;;7425251;19;19921;-82
2023/04/25 01:15:13;;;;;;;14.70;7.72;;;15.80;99.90;;;;;;7425140;19;19923;-82
2023/04/25 01:17:41;;;;;;;14.25;6.75;;;15.70;99.90;;;;;;7421408;19;19946;-81
2023/04/25 01:20:09;;;;;;;15.75;7.18;;;15.80;99.90;;;;;;7420521;19;19915;-81
2023/04/25 01:22:35;;;;;;;16.92;7.28;;;15.80;99.90;;;;;;7425635;19;19974;-81
2023/04/25 01:25:03;;;;;;;15.00;8.27;;;15.70;99.90;;;;;;7372933;19;19939;-82
2023/04/25 01:27:31;;;;;;;16.73;8.48;;;15.70;99.90;;;;;;7424982;19;19989;-82
2023/04/25 01:29:59;;;;;;;17.80;6.93;;;15.70;99.90;;;;;;7425285;19;19914;-81
2023/04/25 01:32:26;;;;;;;15.68;7.55;;;15.60;99.90;;;;;;7420419;19;19922;-81
2023/04/25 01:34:53;;;;;;;14.95;7.43;;;15.60;99.90;;;;;;7422838;19;19910;-82
2023/04/25 01:37:19;;;;;;;14.98;7.50;;;15.60;99.90;;;;;;7418228;19;19919;-82
2023/04/25 01:39:46;;;;;;;13.57;7.78;;;15.70;99.90;;;;;;7420755;19;19911;-81
2023/04/25 01:42:13;;;;;;;15.63;7.55;;;15.70;99.90;;;;;;7418258;19;19926;-81
2023/04/25 01:44:40;;;;;;;14.68;8.43;;;15.70;99.90;;;;;;7423474;19;19918;-81
2023/04/25 01:47:06;;;;;;;14.93;7.50;;;15.80;99.90;;;;;;7420622;19;20311;-81
2023/04/25 01:49:32;;;;;;;17.42;7.93;;;15.80;99.90;;;;;;7422569;19;19915;-82
2023/04/25 01:51:57;;;;;;;17.17;7.78;;;15.80;99.90;;;;;;7423656;19;19906;-81
2023/04/25 01:54:23;;;;;;;18.45;8.70;;;15.80;99.90;;;;;;7416389;19;19923;-81
2023/04/25 01:56:52;;;;;;;18.98;8.30;;;15.80;99.90;;;;;;7424065;19;19924;-80
2023/04/25 01:59:21;;;;;;;14.65;8.10;;;15.80;99.90;;;;;;7416519;19;19918;-80
2023/04/25 02:01:47;;;;;;;18.60;7.95;;;15.80;99.90;;;;;;7421881;19;19918;-81
2023/04/25 02:04:13;;;;;;;15.00;7.95;;;15.80;99.90;;;;;;7367427;19;19932;-81
2023/04/25 02:06:38;;;;;;;13.77;8.13;;;15.80;99.90;;;;;;7422182;19;19914;-81
2023/04/25 02:09:04;;;;;;;16.50;8.30;;;15.80;99.90;;;;;;7428591;19;19911;-81
2023/04/25 02:11:30;;;;;;;18.00;8.75;;;15.70;99.90;;;;;;7428097;19;19919;-81
2023/04/25 02:13:56;;;;;;;19.05;8.45;;;15.80;99.90;;;;;;7377162;19;19948;-80
2023/04/25 02:16:22;;;;;;;16.83;7.50;;;15.90;99.90;;;;;;7427558;19;19926;-81
2023/04/25 02:18:48;;;;;;;16.88;8.23;;;15.90;99.90;;;;;;7426729;19;19978;-82
2023/04/25 02:21:13;;;;;;;15.82;7.22;;;15.90;99.90;;;;;;7424078;19;19929;-82
2023/04/25 02:23:39;;;;;;;15.43;7.20;;;15.90;99.90;;;;;;7407160;19;19914;-82
2023/04/25 02:26:06;;;;;;;15.38;7.97;;;15.90;99.90;;;;;;7427121;19;19913;-81
2023/04/25 02:28:31;;;;;;;12.13;7.13;;;15.90;99.90;;;;;;7427692;19;19919;-81
2023/04/25 02:30:57;;;;;;;17.17;7.88;;;15.90;99.90;;;;;;7428553;19;19946;-80
2023/04/25 02:33:23;;;;;;;15.55;7.15;;;15.90;99.90;;;;;;7425485;19;19911;-81
2023/04/25 02:35:49;;;;;;;13.98;6.80;;;15.90;99.90;;;;;;7427574;19;19922;-81
2023/04/25 02:38:15;;;;;;;15.55;7.18;;;15.90;99.90;;;;;;7426517;19;19915;-81
2023/04/25 02:40:41;;;;;;;14.35;7.00;;;15.90;99.90;;;;;;7428514;19;19933;-81
2023/04/25 02:43:07;;;;;;;14.70;6.95;;;15.80;99.90;;;;;;7426315;19;19907;-82
2023/04/25 02:45:34;;;;;;;14.15;6.82;;;15.80;99.90;;;;;;7427968;19;19914;-82
2023/04/25 02:48:01;;;;;;;13.63;6.28;;;15.70;99.90;;;;;;7425823;19;20004;-82
2023/04/25 02:50:27;;;;;;;13.25;7.15;;;15.60;99.90;;;;;;7426048;19;19929;-79
2023/04/25 02:52:52;;;;;;;16.00;7.75;;;15.50;99.90;;;;;;7428036;19;19923;-81
2023/04/25 02:55:20;;;;;;;17.02;7.32;;;15.50;99.90;;;;;;7425852;19;19974;-82
2023/04/25 02:57:46;;;;;;;14.00;6.88;;;15.40;99.90;;;;;;7425348;19;19919;-82
2023/04/25 03:00:14;;;;;;;14.02;7.38;;;15.40;99.90;;;;;;7422388;19;19914;-82
2023/04/25 03:02:40;;;;;;;13.05;7.32;;;15.30;99.90;;;;;;7426430;19;19926;-82
2023/04/25 03:05:07;;;;;;;16.95;7.18;;;15.40;99.90;;;;;;7421268;19;19911;-81
2023/04/25 03:07:33;;;;;;;15.27;7.38;;;15.30;99.90;;;;;;7428145;19;19911;-81
2023/04/25 03:10:00;;;;;;;15.00;7.22;;;15.30;99.90;;;;;;7431290;19;19914;-81
2023/04/25 03:12:25;;;;;;;16.98;7.47;;;15.30;99.90;;;;;;7396126;19;19962;-81
2023/04/25 03:14:51;;;;;;;17.40;7.65;;;15.40;99.90;;;;;;7408851;19;19915;-81
2023/04/25 03:17:17;;;;;;;15.00;8.00;;;15.40;99.90;;;;;;7406881;19;19950;-81
2023/04/25 03:19:43;;;;;;;15.43;7.72;;;15.40;99.90;;;;;;7428580;19;19918;-80
2023/04/25 03:22:11;;;;;;;14.98;7.38;;;15.40;99.90;;;;;;7431282;19;19925;-81
2023/04/25 03:24:38;;;;;;;15.82;7.82;;;15.40;99.90;;;;;;7429683;19;19915;-82
2023/04/25 03:27:15;;;;;;;14.35;7.68;;;15.30;99.90;;;;;;7412081;19;19942;-81
2023/04/25 03:29:41;;;;;;;21.25;7.70;;;15.40;99.90;;;;;;7410130;19;19907;-81
2023/04/25 03:32:07;;;;;;;16.90;7.85;;;15.40;99.90;;;;;;7405262;19;19963;-82
2023/04/25 03:34:35;;;;;;;18.30;8.23;;;15.40;99.90;;;;;;7431946;19;19922;-81
2023/04/25 03:37:01;;;;;;;18.90;7.90;;;15.40;99.90;;;;;;7390922;19;19915;-81
2023/04/25 03:39:27;;;;;;;16.88;8.77;;;15.40;99.90;;;;;;7405606;19;20318;-81
2023/04/25 03:41:53;;;;;;;16.42;8.00;;;15.40;99.90;;;;;;7425841;19;19922;-81
2023/04/25 03:44:19;;;;;;;14.75;6.72;;;15.40;99.90;;;;;;7403706;19;19926;-81
2023/04/25 03:46:46;;;;;;;15.63;7.35;;;15.40;99.90;;;;;;7421892;19;19926;-81
2023/04/25 03:49:13;;;;;;;18.60;7.93;;;15.50;99.90;;;;;;7420775;19;19957;-81
2023/04/25 03:51:38;;;;;;;;;;;15.50;99.90;;;;;;7425774;19;19915;-82
2023/04/25 03:54:04;;;;;;;16.77;7.32;;;15.50;99.90;;;;;;7419023;19;19937;-81
2023/04/25 03:56:30;;;;;;;16.27;8.27;;;15.50;99.90;;;;;;7426966;19;19970;-83
2023/04/25 03:58:56;;;;;;;18.33;8.30;;;15.40;99.90;;;;;;7427207;19;19906;-81
2023/04/25 04:01:21;;;;;;;17.88;8.27;;;15.40;99.90;;;;;;7419963;19;20065;-81
2023/04/25 04:03:47;;;;;;;20.73;9.68;;;15.50;99.90;;;;;;7425337;19;19919;-81
2023/04/25 04:06:13;;;;;;;16.08;9.13;;;15.50;99.90;;;;;;7422235;19;19906;-80
2023/04/25 04:08:39;;;;;;;19.05;8.88;;;15.40;99.90;;;;;;7424790;19;19915;-81
2023/04/25 04:11:05;;;;;;;17.73;9.95;;;15.40;99.90;;;;;;7421260;19;20379;-80
2023/04/25 04:13:30;;;;;;;16.83;9.45;;;15.30;99.90;;;;;;7425458;19;19922;-80
2023/04/25 04:15:57;;;;;;;20.58;10.18;;;15.30;99.90;;;;;;7425870;19;19918;-81
2023/04/25 04:18:23;;;;;;;20.73;10.55;;;15.30;99.90;;;;;;7423250;19;19944;-82
2023/04/25 04:20:49;;;;;;;21.42;10.45;;;15.30;99.90;;;;;;7419563;19;19915;-80
2023/04/25 04:23:16;;;;;;;19.75;10.23;;;15.40;99.90;;;;;;7425628;19;19914;-80
2023/04/25 04:25:43;;;;;;;22.95;10.27;;;15.30;99.90;;;;;;7396185;19;19919;-81
2023/04/25 04:28:08;;;;;;;17.02;10.13;;;15.30;99.90;;;;;;7425628;19;19918;-80
2023/04/25 04:30:37;;;;;;;19.98;11.13;;;15.40;99.90;;;;;;7375748;19;19926;-80
2023/04/25 04:33:03;;;;;;;25.23;10.60;;;15.40;99.90;;;;;;7402476;19;19919;-81
2023/04/25 04:35:31;;;;;;;20.05;9.88;;;15.50;99.90;;;;;;7427707;19;19930;-85
2023/04/25 04:37:58;;;;;;;18.88;9.23;;;15.50;99.90;;;;;;7424242;19;19910;-81
2023/04/25 04:40:25;;;;;;;;;;;15.50;99.90;;;;;;7374209;19;19951;-81
2023/04/25 04:42:53;;;;;;;22.95;9.57;;;15.50;99.90;;;;;;7421272;19;19919;-81
2023/04/25 04:45:19;;;;;;;21.48;10.55;;;15.50;99.90;;;;;;7421763;19;19935;-80
2023/04/25 04:47:45;;;;;;;18.50;9.68;;;15.40;99.90;;;;;;7425349;19;19923;-81
2023/04/25 04:50:11;;;;;;;21.65;9.93;;;15.40;99.90;;;;;;7420591;19;19925;-80
2023/04/25 04:52:38;;;;;;;18.08;9.30;;;15.50;99.90;;;;;;7419364;19;19926;-80
2023/04/25 04:55:05;;;;;;;21.75;10.63;;;15.50;99.90;;;;;;7417169;19;19919;-80
2023/04/25 04:57:33;;;;;;;22.73;9.88;;;15.50;99.90;;;;;;7421012;19;19918;-81
2023/04/25 04:59:59;;;;;;;17.17;8.93;;;15.50;99.90;;;;;;7423252;19;19917;-82
2023/04/25 05:02:26;;;;;;;20.95;10.02;;;15.50;99.90;;;;;;7421320;19;19914;-81
2023/04/25 05:04:56;;;;;;;18.40;9.77;;;15.50;99.90;;;;;;7423445;19;19915;-80
2023/04/25 05:07:22;;;;;;;19.65;10.48;;;15.50;99.90;;;;;;7401233;19;20025;-81
2023/04/25 05:09:49;;;;;;;17.77;9.85;;;15.50;99.90;;;;;;7422790;19;19923;-81
2023/04/25 05:12:15;;;;;;;15.30;9.27;;;15.50;99.90;;;;;;7420728;19;20465;-81
2023/04/25 05:14:40;;;;;;;22.42;10.35;;;15.50;99.90;;;;;;7421305;19;19930;-81
2023/04/25 05:17:08;;;;;;;22.33;10.73;;;15.50;99.90;;;;;;7397391;19;19963;-82
2023/04/25 05:19:34;;;;;;;19.02;10.10;;;15.50;99.90;;;;;;7423820;19;19915;-82
2023/04/25 05:22:03;;;;;;;18.73;10.18;;;15.60;99.90;;;;;;7422521;19;19930;-81
2023/04/25 05:24:28;;;;;;;24.08;10.80;;;15.60;99.90;;;;;;7389069;19;19919;-82
2023/04/25 05:26:54;;;;;;;21.00;10.98;;;15.70;99.90;;;;;;7422737;19;19911;-84
2023/04/25 05:29:21;;;;;;;17.25;10.23;;;15.70;99.90;;;;;;7412863;19;20025;-81
2023/04/25 05:31:48;;;;;;;21.77;11.40;;;15.70;99.90;;;;;;7422846;19;20541;-82
2023/04/25 05:34:14;;;;;;;19.70;10.30;;;15.70;99.90;;;;;;7414405;19;19918;-82
2023/04/25 05:36:39;;;;;;;24.83;11.02;;;15.70;99.90;;;;;;7420983;19;19938;-82
2023/04/25 05:39:08;;;;;;;21.77;10.55;;;15.80;99.90;;;;;;7419469;19;20374;-81
2023/04/25 05:41:34;;;;;;;22.73;11.60;;;15.80;99.90;;;;;;7389828;19;19918;-82
2023/04/25 05:44:00;;;;;;;21.48;11.02;;;15.80;99.90;;;;;;7375537;19;20006;-82
2023/04/25 05:46:26;;;;;;;21.55;11.48;;;15.90;99.90;;;;;;7428495;19;19921;-82
2023/04/25 05:48:51;;;;;;;24.27;11.45;;;15.90;99.90;;;;;;7427335;19;19918;-82
2023/04/25 05:51:18;;;;;;;23.20;11.45;;;16.00;99.90;;;;;;7425712;19;19937;-81
2023/04/25 05:53:44;;;;;;;25.63;13.25;;;15.90;99.90;;;;;;7405613;19;20003;-82
2023/04/25 05:56:10;;;;;;;22.27;12.82;;;15.90;99.90;;;;;;7426939;19;19923;-81
2023/04/25 05:58:35;;;;;;;24.10;13.15;;;15.90;99.90;;;;;;7425445;19;19950;-81
2023/04/25 06:01:02;;;;;;;26.02;13.65;;;16.00;99.90;;;;;;7425518;19;19964;-81
2023/04/25 06:03:28;;;;;;;20.17;12.57;;;16.10;99.90;;;;;;7423932;19;19933;-81
2023/04/25 06:05:54;;;;;;;25.42;13.85;;;16.20;99.90;;;;;;7425009;19;19915;-81
2023/04/25 06:08:20;;;;;;;23.20;12.85;;;16.20;99.90;;;;;;7421021;19;20424;-82
2023/04/25 06:10:47;;;;;;;23.25;13.30;;;16.30;99.90;;;;;;7427912;19;19927;-83
2023/04/25 06:13:13;;;;;;;23.85;12.82;;;16.40;99.90;;;;;;7427054;19;19915;-82
2023/04/25 06:15:39;;;;;;;24.20;13.75;;;16.50;99.90;;;;;;7421950;19;21470;-82
2023/04/25 06:18:04;;;;;;;24.30;13.85;;;16.60;99.90;;;;;;7424544;19;19911;-82
2023/04/25 06:20:30;;;;;;;24.00;13.18;;;16.60;99.90;;;;;;7427562;19;19915;-82
2023/04/25 06:22:56;;;;;;;27.70;14.77;;;16.60;99.90;;;;;;7428553;19;19903;-82
2023/04/25 06:25:22;;;;;;;27.65;14.27;;;16.60;99.90;;;;;;7422079;19;19922;-80
2023/04/25 06:27:47;;;;;;;28.50;15.15;;;16.60;99.90;;;;;;7424143;19;19952;-83
2023/04/25 06:30:18;;;;;;;25.95;13.77;;;16.70;99.90;;;;;;7420241;19;19914;-80
2023/04/25 06:32:44;;;;;;;30.90;14.50;;;16.70;99.90;;;;;;7421682;19;19941;-80
2023/04/25 06:35:10;;;;;;;29.67;13.52;;;16.80;99.90;;;;;;7417664;19;19918;-79
2023/04/25 06:37:37;;;;;;;24.45;13.90;;;17.00;99.90;;;;;;7426058;19;19926;-79
2023/04/25 06:40:03;;;;;;;30.75;14.88;;;17.10;99.90;;;;;;7426788;19;19942;-79
2023/04/25 06:42:28;;;;;;;28.17;14.73;;;17.30;99.90;;;;;;7426246;19;19926;-80
2023/04/25 06:44:55;;;;;;;23.95;13.15;;;17.20;99.90;;;;;;7427192;19;19918;-80
2023/04/25 06:47:22;;;;;;;29.90;14.75;;;17.20;99.90;;;;;;7424488;19;19929;-80
2023/04/25 06:49:48;;;;;;;24.70;15.10;;;17.30;99.90;;;;;;7424421;19;19918;-79
2023/04/25 06:52:15;;;;;;;29.58;15.10;;;17.40;99.90;;;;;;7423857;19;19911;-80
2023/04/25 06:54:41;;;;;;;28.73;15.18;;;17.50;99.90;;;;;;7422849;19;19915;-80
2023/04/25 06:57:07;;;;;;;31.17;17.10;;;17.70;99.90;;;;;;7420095;19;19940;-81
2023/04/25 06:59:33;;;;;;;25.42;16.33;;;17.80;99.90;;;;;;7425498;19;19981;-80
2023/04/25 07:01:59;;;;;;;30.80;17.63;;;17.90;99.90;;;;;;7419254;19;19947;-80
2023/04/25 07:04:25;;;;;;;32.97;16.92;;;17.80;99.90;;;;;;7418564;19;19938;-79
2023/04/25 07:06:51;;;;;;;33.63;17.15;;;17.90;99.90;;;;;;7386233;19;19939;-74
2023/04/25 07:09:17;;;;;;;27.75;16.45;;;18.00;99.90;;;;;;7381916;19;19917;-73
2023/04/25 07:11:43;;;;;;;25.25;15.27;;;18.30;99.90;;;;;;7400134;19;20396;-73
2023/04/25 07:14:09;;;;;;;28.60;15.23;;;18.50;99.90;;;;;;7400873;19;20390;-73
2023/04/25 07:16:34;;;;;;;28.50;15.45;;;18.60;99.90;;;;;;7399498;19;19915;-74
2023/04/25 07:19:00;;;;;;;25.02;14.38;;;18.70;99.90;;;;;;7402234;19;19921;-74
2023/04/25 07:21:26;;;;;;;29.70;14.50;;;18.70;99.90;;;;;;7388510;19;19946;-73
2023/04/25 07:23:52;;;;;;;26.40;14.68;;;18.70;99.90;;;;;;7396332;19;19923;-73
2023/04/25 07:26:18;;;;;;;34.65;17.05;;;18.60;99.90;;;;;;7394458;19;20633;-75
2023/04/25 07:28:43;;;;;;;26.55;15.52;;;18.50;99.90;;;;;;7396263;19;19922;-74
2023/04/25 07:31:09;;;;;;;31.45;15.57;;;18.40;99.90;;;;;;7391423;19;19934;-72
2023/04/25 07:33:35;;;;;;;28.10;15.60;;;18.40;99.90;;;;;;7380843;19;19926;-74
2023/04/25 07:36:01;;;;;;;25.98;16.00;;;18.40;99.90;;;;;;7393279;19;19914;-74
2023/04/25 07:38:27;;;;;;;34.30;17.60;;;18.40;99.90;;;;;;7394601;19;19921;-74
2023/04/25 07:40:54;;;;;;;32.75;19.48;;;18.20;99.90;;;;;;7360959;19;20284;-75
2023/04/25 07:43:20;;;;;;;25.67;15.90;;;18.20;99.90;;;;;;7387582;19;19941;-76
2023/04/25 07:45:46;;;;;;;30.90;16.52;;;18.30;99.90;;;;;;7388227;19;19966;-75
2023/04/25 07:48:18;;;;;;;28.10;18.27;;;18.20;99.90;;;;;;7361475;19;20254;-74
2023/04/25 07:50:44;;;;;;;28.35;16.48;;;18.30;99.90;;;;;;7396109;19;19915;-73
2023/04/25 07:53:10;;;;;;;34.53;17.88;;;18.40;99.90;;;;;;7394278;19;19954;-74
2023/04/25 07:55:39;;;;;;;36.63;17.13;;;18.50;99.90;;;;;;7395457;19;19918;-74
2023/04/25 07:58:05;;;;;;;33.58;15.57;;;18.80;99.90;;;;;;7392529;19;19923;-74
2023/04/25 08:00:31;;;;;;;32.53;16.42;;;18.90;99.90;;;;;;7398468;19;19911;-74
2023/04/25 08:02:57;;;;;;;31.23;16.13;;;19.30;99.90;;;;;;7381023;19;19949;-74
2023/04/25 08:05:23;;;;;;;33.88;19.52;;;19.50;99.30;;;;;;7393157;19;20354;-74
2023/04/25 08:07:49;;;;;;;29.17;15.35;;;19.40;98.80;;;;;;7386885;19;19922;-74
2023/04/25 08:10:17;;;;;;;27.90;16.77;;;19.30;99.20;;;;;;7392387;19;19923;-74
2023/04/25 08:12:43;;;;;;;34.20;17.83;;;19.10;99.20;;;;;;7397446;19;19942;-74
2023/04/25 08:15:09;;;;;;;29.27;17.48;;;19.10;99.60;;;;;;7369146;19;19918;-74
2023/04/25 08:17:35;;;;;;;33.53;18.52;;;19.10;99.50;;;;;;7400572;19;19926;-74
2023/04/25 08:20:01;;;;;;;28.55;16.67;;;19.30;99.80;;;;;;7399285;19;20619;-74
2023/04/25 08:22:28;;;;;;;27.52;16.10;;;19.80;98.60;;;;;;7388046;19;19923;-74
2023/04/25 08:24:54;;;;;;;26.55;15.32;;;20.20;97.90;;;;;;7399447;19;19915;-73
2023/04/25 08:27:20;;;;;;;30.45;15.98;;;20.50;97.00;;;;;;7388522;19;19926;-73
2023/04/25 08:29:46;;;;;;;31.52;15.95;;;20.40;96.90;;;;;;7394071;19;19951;-74
2023/04/25 08:32:12;;;;;;;30.23;14.18;;;20.30;96.40;;;;;;7390729;19;19929;-74
2023/04/25 08:34:41;;;;;;;31.55;14.82;;;20.60;96.40;;;;;;7394323;19;19922;-74
2023/04/25 08:37:09;;;;;;;26.17;14.60;;;20.60;96.60;;;;;;7393456;19;19915;-73
2023/04/25 08:39:36;;;;;;;27.95;14.77;;;20.60;96.60;;;;;;7397181;19;19945;-74
2023/04/25 08:42:03;;;;;;;;;;;20.60;96.70;;;;;;7394537;19;19935;-73
2023/04/25 08:44:30;;;;;;;25.33;14.43;;;20.70;96.80;;;;;;7367607;19;20263;-73
2023/04/25 08:46:56;;;;;;;;;;;21.10;96.30;;;;;;7392242;19;19926;-74
2023/04/25 08:49:22;;;;;;;32.35;15.70;;;21.50;95.00;;;;;;7386752;19;19942;-73
2023/04/25 08:51:52;;;;;;;27.88;15.00;;;21.50;94.30;;;;;;7395807;19;19927;-73
2023/04/25 08:54:21;;;;;;;23.83;14.60;;;21.00;95.50;;;;;;7393123;19;20331;-74
2023/04/25 08:56:48;;;;;;;28.88;17.75;;;20.70;95.90;;;;;;7390511;19;20620;-74
2023/04/25 08:59:14;;;;;;;26.95;15.57;;;21.80;95.20;;;;;;7389285;19;19979;-73
2023/04/25 09:01:40;;;;;;;22.95;16.20;;;21.60;94.50;;;;;;7391703;19;19949;-74
2023/04/25 09:04:06;;;;;;;26.30;15.35;;;22.50;93.10;;;;;;7389609;19;19914;-74
2023/04/25 09:06:34;;;;;;;25.65;14.90;;;21.70;93.50;;;;;;7394862;19;19974;-74
2023/04/25 09:09:07;;;;;;;27.10;14.57;;;21.20;94.10;;;;;;7396648;19;19929;-74
2023/04/25 09:11:38;;;;;;;28.52;16.17;;;21.40;94.90;;;;;;7399371;19;19930;-74
2023/04/25 09:14:33;;;;;;;27.80;14.65;;;22.30;94.00;;;;;;7389013;19;19914;-73
2023/04/25 09:17:01;;;;;;;26.55;15.02;;;23.30;92.60;;;;;;7384428;19;20612;-73
2023/04/25 09:19:39;;;;;;;22.20;13.70;;;23.90;90.80;;;;;;7390808;19;19919;-73
2023/04/25 09:22:05;;;;;;;25.92;14.55;;;24.60;89.90;;;;;;7390812;19;19922;-76
2023/04/25 09:24:34;;;;;;;26.40;15.55;;;24.20;88.50;;;;;;7396380;19;19946;-77
2023/04/25 09:27:02;;;;;;;26.92;15.30;;;24.00;90.30;;;;;;7401227;19;19923;-77
2023/04/25 09:29:36;;;;;;;25.65;16.00;;;24.30;89.40;;;;;;7399517;19;19914;-76
2023/04/25 09:32:18;;;;;;;22.35;16.73;;;25.00;86.60;;;;;;7403247;19;19922;-75
2023/04/25 09:34:51;;;;;;;25.98;16.15;;;24.80;85.90;;;;;;7404926;19;19978;-76
2023/04/25 09:37:26;;;;;;;23.13;16.38;;;24.90;86.70;;;;;;7405408;19;19922;-77
2023/04/25 09:39:59;;;;;;;28.52;19.35;;;23.70;88.90;;;;;;7388803;19;19922;-76
2023/04/25 09:42:28;;;;;;;28.17;20.23;;;22.00;91.40;;;;;;7401367;19;20570;-76
2023/04/25 09:44:56;;;;;;;31.30;17.23;;;22.10;91.80;;;;;;7407631;19;19926;-76
2023/04/25 09:47:26;;;;;;;33.05;17.40;;;22.30;92.00;;;;;;7396290;19;20027;-76
2023/04/25 09:49:53;;;;;;;31.05;17.58;;;22.00;91.90;;;;;;7400663;19;19910;-76
2023/04/25 09:52:23;;;;;;;28.98;16.38;;;21.70;92.80;;;;;;7394987;19;19926;-77
2023/04/25 09:54:50;;;;;;;29.85;17.27;;;21.80;93.00;;;;;;7406330;19;19938;-76
2023/04/25 09:57:17;;;;;;;25.92;15.30;;;21.80;92.60;;;;;;7393634;19;19903;-76
2023/04/25 09:59:46;;;;;;;30.58;17.33;;;21.70;93.40;;;;;;7408368;19;19918;-73
2023/04/25 10:02:13;;;;;;;28.77;16.48;;;23.10;91.20;;;;;;7404238;19;19938;-73
2023/04/25 10:04:40;;;;;;;28.40;15.20;;;23.00;90.80;;;;;;7404826;19;19918;-73
2023/04/25 10:07:09;;;;;;;23.63;15.15;;;24.20;90.40;;;;;;7404847;19;19935;-74
2023/04/25 10:09:39;;;;;;;22.17;14.70;;;23.90;87.30;;;;;;7405672;19;19920;-73
2023/04/25 10:12:07;;;;;;;20.35;13.15;;;25.00;86.80;;;;;;7405764;19;19919;-72
2023/04/25 10:14:34;;;;;;;21.70;14.48;;;24.30;86.20;;;;;;7404715;19;20248;-73
2023/04/25 10:17:00;;;;;;;21.33;12.68;;;25.00;85.60;;;;;;7408441;19;19915;-73
2023/04/25 10:19:27;;;;;;;24.90;12.10;;;24.80;83.50;;;;;;7401625;19;19935;-72
2023/04/25 10:22:12;;;;;;;21.30;12.05;;;24.20;86.50;;;;;;7408246;19;20636;-72
2023/04/25 10:24:39;;;;;;;21.95;11.77;;;23.30;88.00;;;;;;7405441;19;19970;-72
2023/04/25 10:27:06;;;;;;;21.10;12.20;;;22.70;89.90;;;;;;7400491;19;19914;-74
2023/04/25 10:29:32;;;;;;;18.83;12.98;;;22.70;90.40;;;;;;7404196;19;19921;-73
2023/04/25 10:31:58;;;;;;;20.42;11.90;;;22.40;90.30;;;;;;7403635;19;19911;-73
2023/04/25 10:34:46;;;;;;;24.23;12.73;;;22.00;91.70;;;;;;7403953;19;19923;-72
2023/04/25 10:37:13;;;;;;;23.45;13.23;;;22.20;91.30;;;;;;7400517;19;19915;-73
2023/04/25 10:39:42;;;;;;;21.65;12.75;;;21.90;91.50;;;;;;7406905;19;20377;-73
2023/04/25 10:42:08;;;;;;;22.10;11.50;;;21.50;91.60;;;;;;7398892;19;19943;-73
2023/04/25 10:44:36;;;;;;;22.45;12.50;;;22.00;90.80;;;;;;7404689;19;20261;-72
2023/04/25 10:47:05;;;;;;;20.95;11.82;;;21.90;91.10;;;;;;7396692;19;19923;-74
2023/04/25 10:49:51;;;;;;;17.58;11.00;;;22.30;91.10;;;;;;7401672;19;19914;-74
2023/04/25 10:52:24;;;;;;;18.67;11.73;;;21.50;91.20;;;;;;7395311;19;19919;-73
2023/04/25 10:54:54;;;;;;;18.60;9.85;;;22.20;90.80;;;;;;7398145;19;20468;-73
2023/04/25 10:57:37;;;;;;;17.83;10.02;;;22.60;90.00;;;;;;7399452;19;19922;-73
2023/04/25 11:00:11;;;;;;;20.05;10.02;;;23.00;88.80;;;;;;7386170;19;19914;-72
2023/04/25 11:02:52;;;;;;;19.25;11.07;;;23.00;87.80;;;;;;7377191;19;19915;-73
2023/04/25 11:05:31;;;;;;;17.27;10.07;;;22.70;89.30;;;;;;7391139;19;20378;-74
2023/04/25 11:07:59;;;;;;;16.30;8.82;;;23.30;88.60;;;;;;7401830;19;19942;-74
2023/04/25 11:10:27;;;;;;;17.20;8.95;;;23.90;86.00;;;;;;7396097;19;19918;-73
2023/04/25 11:12:55;;;;;;;16.83;9.40;;;24.40;83.70;;;;;;7377628;19;19923;-73
2023/04/25 11:15:21;;;;;;;16.73;7.90;;;24.50;84.60;;;;;;7399430;19;21402;-74
2023/04/25 11:17:47;;;;;;;17.35;9.18;;;25.20;81.80;;;;;;7403407;19;19926;-73
2023/04/25 11:20:15;;;;;;;16.55;8.70;;;24.70;80.40;;;;;;7401023;19;19926;-74
2023/04/25 11:22:43;;;;;;;19.10;10.15;;;24.70;80.90;;;;;;7394191;19;21007;-73
2023/04/25 11:25:11;;;;;;;19.08;10.65;;;24.80;82.10;;;;;;7395828;19;19919;-73
2023/04/25 11:27:57;;;;;;;17.27;8.50;;;24.50;81.30;;;;;;7398494;19;20595;-72
2023/04/25 11:30:25;;;;;;;17.52;8.73;;;24.30;82.40;;;;;;7341927;19;20008;-73
2023/04/25 11:32:51;;;;;;;17.27;9.85;;;24.30;82.80;;;;;;7400075;19;20270;-73
2023/04/25 11:35:20;;;;;;;14.75;9.00;;;24.50;82.40;;;;;;7400248;19;20335;-74
2023/04/25 11:37:47;;;;;;;18.52;8.48;;;24.50;81.40;;;;;;7377680;19;19978;-74
2023/04/25 11:40:12;;;;;;;15.73;8.05;;;24.80;82.30;;;;;;7389964;19;19939;-73
2023/04/25 11:42:47;;;;;;;14.75;8.02;;;25.30;80.20;;;;;;7391811;19;19914;-73
2023/04/25 11:45:14;;;;;;;15.25;6.88;;;25.70;79.80;;;;;;7398578;19;20294;-73
2023/04/25 11:47:40;;;;;;;14.10;7.18;;;26.60;80.10;;;;;;7399823;19;19919;-72
2023/04/25 11:50:08;;;;;;;16.67;7.47;;;26.90;79.00;;;;;;7391541;19;20007;-73
2023/04/25 11:52:37;;;;;;;13.45;7.28;;;27.00;78.00;;;;;;7393718;19;19911;-73
2023/04/25 11:55:08;;;;;;;12.48;5.85;;;26.90;79.20;;;;;;7400779;19;19911;-72
2023/04/25 11:57:34;;;;;;;13.05;6.15;;;27.60;77.80;;;;;;7397269;19;20339;-73
2023/04/25 12:00:16;;;;;;;8.80;5.18;;;27.80;77.20;;;;;;7406281;19;19922;-74
2023/04/25 12:02:47;;;;;;;11.52;5.95;;;27.30;77.30;;;;;;7400940;19;19926;-73
2023/04/25 12:05:16;;;;;;;12.73;5.30;;;27.10;78.10;;;;;;7385466;19;20367;-73
2023/04/25 12:07:42;;;;;;;11.95;6.43;;;27.70;77.40;;;;;;7398354;19;20423;-73
2023/04/25 12:10:16;;;;;;;12.38;5.93;;;27.40;78.40;;;;;;7393114;19;19915;-74
2023/04/25 12:12:45;;;;;;;13.93;5.93;;;27.90;78.00;;;;;;7404467;19;19922;-72
2023/04/25 12:15:22;;;;;;;12.82;6.32;;;28.70;76.40;;;;;;7397381;19;19907;-73
2023/04/25 12:17:51;;;;;;;10.90;5.68;;;28.00;76.40;;;;;;7393571;19;19919;-73
2023/04/25 12:20:18;;;;;;;10.63;5.80;;;28.30;76.00;;;;;;7396382;19;19918;-73
2023/04/25 12:22:47;;;;;;;10.90;6.25;;;28.30;76.60;;;;;;7396366;19;20602;-74
2023/04/25 12:25:32;;;;;;;10.38;4.47;;;28.20;76.40;;;;;;7388752;19;19926;-73
2023/04/25 12:28:15;;;;;;;12.77;5.13;;;27.30;77.00;;;;;;7399995;19;20010;-74
2023/04/25 12:31:04;;;;;;;11.82;5.45;;;27.30;78.00;;;;;;7398283;19;19918;-72
2023/04/25 12:33:37;;;;;;;12.60;5.50;;;26.90;78.80;;;;;;7344582;19;19919;-74
2023/04/25 12:36:10;;;;;;;9.77;5.35;;;27.00;79.10;;;;;;7399745;19;19918;-74